sensor_id;sensor_type;location;lat;lon;timestamp;P1;durP1;ratioP1;P2;durP2;ratioP2
42632;SDS011;28261;53.304;-6.284;2024-02-26T00:01:43;12.25;;;5.70;;
42632;SDS011;28261;53.304;-6.284;2024-02-26T00:03:49;10.68;;;5.10;;
42632;SDS011;28261;53.304;-6.284;2024-02-26T00:05:56;8.98;;;5.35;;
42632;SDS011;28261;53.304;-6.284;2024-02-26T00:08:03;12.40;;;5.38;;
42632;SDS011;28261;53.304;-6.284;2024-02-26T00:10:09;10.25;;;5.50;;
42632;SDS011;28261;53.304;-6.284;2024-02-26T00:12:13;12.93;;;5.85;;
42632;SDS011;28261;53.304;-6.284;2024-02-26T00:14:20;10.80;;;5.82;;
42632;SDS011;28261;53.304;-6.284;2024-02-26T00:16:33;13.63;;;5.45;;
42632;SDS011;28261;53.304;-6.284;2024-02-26T00:18:37;14.50;;;5.68;;
42632;SDS011;28261;53.304;-6.284;2024-02-26T00:20:42;9.45;;;5.35;;
42632;SDS011;28261;53.304;-6.284;2024-02-26T00:22:47;13.80;;;5.35;;
42632;SDS011;28261;53.304;-6.284;2024-02-26T00:24:51;11.55;;;4.93;;
42632;SDS011;28261;53.304;-6.284;2024-02-26T00:26:57;8.68;;;4.82;;
42632;SDS011;28261;53.304;-6.284;2024-02-26T00:29:02;11.18;;;5.85;;
42632;SDS011;28261;53.304;-6.284;2024-02-26T00:31:12;10.18;;;6.45;;
42632;SDS011;28261;53.304;-6.284;2024-02-26T00:33:16;10.35;;;5.25;;
42632;SDS011;28261;53.304;-6.284;2024-02-26T00:35:21;12.10;;;6.40;;
42632;SDS011;28261;53.304;-6.284;2024-02-26T00:37:25;12.15;;;5.20;;
42632;SDS011;28261;53.304;-6.284;2024-02-26T00:39:31;9.50;;;5.28;;
42632;SDS011;28261;53.304;-6.284;2024-02-26T00:43:41;10.40;;;5.47;;
42632;SDS011;28261;53.304;-6.284;2024-02-26T00:45:46;12.27;;;5.80;;
42632;SDS011;28261;53.304;-6.284;2024-02-26T00:47:53;13.07;;;5.65;;
42632;SDS011;28261;53.304;-6.284;2024-02-26T00:49:59;12.70;;;5.30;;
42632;SDS011;28261;53.304;-6.284;2024-02-26T00:52:04;11.57;;;5.80;;
42632;SDS011;28261;53.304;-6.284;2024-02-26T00:54:09;12.95;;;5.40;;
42632;SDS011;28261;53.304;-6.284;2024-02-26T00:56:14;10.88;;;5.22;;
42632;SDS011;28261;53.304;-6.284;2024-02-26T00:58:21;14.82;;;5.93;;
42632;SDS011;28261;53.304;-6.284;2024-02-26T01:00:25;12.65;;;5.82;;
42632;SDS011;28261;53.304;-6.284;2024-02-26T01:02:29;11.50;;;5.95;;
42632;SDS011;28261;53.304;-6.284;2024-02-26T01:04:36;17.75;;;6.40;;
42632;SDS011;28261;53.304;-6.284;2024-02-26T01:06:40;13.93;;;5.50;;
42632;SDS011;28261;53.304;-6.284;2024-02-26T01:08:44;11.75;;;6.40;;
42632;SDS011;28261;53.304;-6.284;2024-02-26T01:10:48;11.18;;;6.25;;
42632;SDS011;28261;53.304;-6.284;2024-02-26T01:12:52;9.45;;;6.20;;
42632;SDS011;28261;53.304;-6.284;2024-02-26T01:14:57;9.93;;;5.80;;
42632;SDS011;28261;53.304;-6.284;2024-02-26T01:17:03;11.30;;;6.10;;
42632;SDS011;28261;53.304;-6.284;2024-02-26T01:19:07;13.80;;;6.43;;
42632;SDS011;28261;53.304;-6.284;2024-02-26T01:21:16;14.93;;;6.50;;
42632;SDS011;28261;53.304;-6.284;2024-02-26T01:23:22;11.13;;;5.88;;
42632;SDS011;28261;53.304;-6.284;2024-02-26T01:25:27;10.25;;;6.20;;
42632;SDS011;28261;53.304;-6.284;2024-02-26T01:27:32;11.70;;;6.28;;
42632;SDS011;28261;53.304;-6.284;2024-02-26T01:29:37;10.35;;;6.68;;
42632;SDS011;28261;53.304;-6.284;2024-02-26T01:31:41;9.98;;;5.55;;
42632;SDS011;28261;53.304;-6.284;2024-02-26T01:33:45;9.32;;;5.57;;
42632;SDS011;28261;53.304;-6.284;2024-02-26T01:35:51;9.98;;;5.30;;
42632;SDS011;28261;53.304;-6.284;2024-02-26T01:37:57;11.77;;;6.32;;
42632;SDS011;28261;53.304;-6.284;2024-02-26T01:40:01;13.90;;;6.43;;
42632;SDS011;28261;53.304;-6.284;2024-02-26T01:42:09;13.63;;;6.13;;
42632;SDS011;28261;53.304;-6.284;2024-02-26T01:44:14;11.95;;;5.38;;
42632;SDS011;28261;53.304;-6.284;2024-02-26T01:46:19;11.55;;;5.55;;
42632;SDS011;28261;53.304;-6.284;2024-02-26T01:48:28;13.07;;;6.35;;
42632;SDS011;28261;53.304;-6.284;2024-02-26T01:52:40;9.00;;;5.50;;
42632;SDS011;28261;53.304;-6.284;2024-02-26T01:54:47;13.90;;;6.13;;
42632;SDS011;28261;53.304;-6.284;2024-02-26T01:56:51;9.57;;;5.28;;
42632;SDS011;28261;53.304;-6.284;2024-02-26T01:58:56;11.85;;;5.80;;
42632;SDS011;28261;53.304;-6.284;2024-02-26T02:01:01;9.02;;;4.75;;
42632;SDS011;28261;53.304;-6.284;2024-02-26T02:03:06;9.75;;;5.07;;
42632;SDS011;28261;53.304;-6.284;2024-02-26T02:05:15;12.05;;;5.93;;
42632;SDS011;28261;53.304;-6.284;2024-02-26T02:07:21;12.63;;;5.13;;
42632;SDS011;28261;53.304;-6.284;2024-02-26T02:11:35;9.75;;;6.50;;
42632;SDS011;28261;53.304;-6.284;2024-02-26T02:13:40;10.90;;;5.38;;
42632;SDS011;28261;53.304;-6.284;2024-02-26T02:15:45;9.15;;;4.90;;
42632;SDS011;28261;53.304;-6.284;2024-02-26T02:17:49;10.00;;;4.47;;
42632;SDS011;28261;53.304;-6.284;2024-02-26T02:19:54;13.63;;;6.18;;
42632;SDS011;28261;53.304;-6.284;2024-02-26T02:22:01;8.57;;;4.90;;
42632;SDS011;28261;53.304;-6.284;2024-02-26T02:24:06;9.35;;;4.95;;
42632;SDS011;28261;53.304;-6.284;2024-02-26T02:26:13;9.80;;;4.72;;
42632;SDS011;28261;53.304;-6.284;2024-02-26T02:28:18;6.95;;;4.47;;
42632;SDS011;28261;53.304;-6.284;2024-02-26T02:30:23;8.77;;;4.45;;
42632;SDS011;28261;53.304;-6.284;2024-02-26T02:32:33;11.98;;;4.75;;
42632;SDS011;28261;53.304;-6.284;2024-02-26T02:34:38;8.52;;;5.03;;
42632;SDS011;28261;53.304;-6.284;2024-02-26T02:36:48;7.95;;;4.45;;
42632;SDS011;28261;53.304;-6.284;2024-02-26T02:38:56;10.10;;;4.68;;
42632;SDS011;28261;53.304;-6.284;2024-02-26T02:41:03;7.22;;;4.97;;
42632;SDS011;28261;53.304;-6.284;2024-02-26T02:43:10;7.70;;;5.00;;
42632;SDS011;28261;53.304;-6.284;2024-02-26T02:45:15;11.48;;;5.70;;
42632;SDS011;28261;53.304;-6.284;2024-02-26T02:47:20;8.23;;;4.90;;
42632;SDS011;28261;53.304;-6.284;2024-02-26T02:49:24;7.25;;;4.57;;
42632;SDS011;28261;53.304;-6.284;2024-02-26T02:51:27;8.15;;;4.72;;
42632;SDS011;28261;53.304;-6.284;2024-02-26T02:53:33;11.65;;;6.03;;
42632;SDS011;28261;53.304;-6.284;2024-02-26T02:55:39;6.80;;;4.40;;
42632;SDS011;28261;53.304;-6.284;2024-02-26T02:57:43;10.63;;;5.00;;
42632;SDS011;28261;53.304;-6.284;2024-02-26T02:59:49;10.30;;;5.88;;
42632;SDS011;28261;53.304;-6.284;2024-02-26T03:01:53;8.13;;;5.55;;
42632;SDS011;28261;53.304;-6.284;2024-02-26T03:03:57;8.57;;;4.72;;
42632;SDS011;28261;53.304;-6.284;2024-02-26T03:06:02;8.20;;;4.60;;
42632;SDS011;28261;53.304;-6.284;2024-02-26T03:08:06;12.25;;;5.05;;
42632;SDS011;28261;53.304;-6.284;2024-02-26T03:10:11;7.97;;;4.53;;
42632;SDS011;28261;53.304;-6.284;2024-02-26T03:12:18;10.38;;;4.57;;
42632;SDS011;28261;53.304;-6.284;2024-02-26T03:14:22;8.25;;;4.85;;
42632;SDS011;28261;53.304;-6.284;2024-02-26T03:16:27;7.55;;;4.43;;
42632;SDS011;28261;53.304;-6.284;2024-02-26T03:18:32;8.73;;;5.03;;
42632;SDS011;28261;53.304;-6.284;2024-02-26T03:20:38;12.07;;;6.10;;
42632;SDS011;28261;53.304;-6.284;2024-02-26T03:22:43;8.63;;;4.90;;
42632;SDS011;28261;53.304;-6.284;2024-02-26T03:24:48;8.93;;;5.40;;
42632;SDS011;28261;53.304;-6.284;2024-02-26T03:26:51;10.90;;;5.70;;
42632;SDS011;28261;53.304;-6.284;2024-02-26T03:28:56;12.13;;;5.13;;
42632;SDS011;28261;53.304;-6.284;2024-02-26T03:31:00;9.43;;;4.78;;
42632;SDS011;28261;53.304;-6.284;2024-02-26T03:33:06;9.30;;;4.97;;
42632;SDS011;28261;53.304;-6.284;2024-02-26T03:35:12;9.25;;;5.40;;
42632;SDS011;28261;53.304;-6.284;2024-02-26T03:37:18;8.45;;;5.68;;
42632;SDS011;28261;53.304;-6.284;2024-02-26T03:39:22;9.23;;;4.95;;
42632;SDS011;28261;53.304;-6.284;2024-02-26T03:41:27;8.05;;;5.15;;
42632;SDS011;28261;53.304;-6.284;2024-02-26T03:43:33;8.77;;;4.38;;
42632;SDS011;28261;53.304;-6.284;2024-02-26T03:45:41;10.82;;;5.35;;
42632;SDS011;28261;53.304;-6.284;2024-02-26T03:47:44;8.02;;;4.35;;
42632;SDS011;28261;53.304;-6.284;2024-02-26T03:49:48;10.05;;;4.95;;
42632;SDS011;28261;53.304;-6.284;2024-02-26T03:51:52;8.75;;;4.68;;
42632;SDS011;28261;53.304;-6.284;2024-02-26T03:53:56;9.15;;;4.60;;
42632;SDS011;28261;53.304;-6.284;2024-02-26T03:56:02;9.48;;;4.43;;
42632;SDS011;28261;53.304;-6.284;2024-02-26T03:58:07;7.70;;;4.07;;
42632;SDS011;28261;53.304;-6.284;2024-02-26T04:00:12;9.93;;;4.32;;
42632;SDS011;28261;53.304;-6.284;2024-02-26T04:04:23;7.68;;;3.78;;
42632;SDS011;28261;53.304;-6.284;2024-02-26T04:06:27;7.50;;;4.20;;
42632;SDS011;28261;53.304;-6.284;2024-02-26T04:08:31;7.68;;;4.05;;
42632;SDS011;28261;53.304;-6.284;2024-02-26T04:10:35;9.40;;;3.95;;
42632;SDS011;28261;53.304;-6.284;2024-02-26T04:12:41;8.52;;;4.40;;
42632;SDS011;28261;53.304;-6.284;2024-02-26T04:14:46;7.47;;;4.70;;
42632;SDS011;28261;53.304;-6.284;2024-02-26T04:16:51;7.38;;;4.10;;
42632;SDS011;28261;53.304;-6.284;2024-02-26T04:21:01;6.10;;;3.63;;
42632;SDS011;28261;53.304;-6.284;2024-02-26T04:23:09;6.18;;;3.75;;
42632;SDS011;28261;53.304;-6.284;2024-02-26T04:25:13;7.70;;;3.35;;
42632;SDS011;28261;53.304;-6.284;2024-02-26T04:27:18;8.35;;;3.85;;
42632;SDS011;28261;53.304;-6.284;2024-02-26T04:29:23;7.43;;;3.90;;
42632;SDS011;28261;53.304;-6.284;2024-02-26T04:31:26;13.02;;;4.55;;
42632;SDS011;28261;53.304;-6.284;2024-02-26T04:33:33;5.78;;;3.58;;
42632;SDS011;28261;53.304;-6.284;2024-02-26T04:35:40;5.93;;;3.10;;
42632;SDS011;28261;53.304;-6.284;2024-02-26T04:37:43;6.10;;;3.42;;
42632;SDS011;28261;53.304;-6.284;2024-02-26T04:39:47;6.07;;;2.78;;
42632;SDS011;28261;53.304;-6.284;2024-02-26T04:41:52;7.55;;;3.25;;
42632;SDS011;28261;53.304;-6.284;2024-02-26T04:43:57;4.90;;;3.15;;
42632;SDS011;28261;53.304;-6.284;2024-02-26T04:46:01;5.07;;;3.00;;
42632;SDS011;28261;53.304;-6.284;2024-02-26T04:48:11;6.88;;;3.70;;
42632;SDS011;28261;53.304;-6.284;2024-02-26T04:50:16;6.15;;;3.30;;
42632;SDS011;28261;53.304;-6.284;2024-02-26T04:52:21;7.63;;;3.30;;
42632;SDS011;28261;53.304;-6.284;2024-02-26T04:54:24;6.75;;;3.17;;
42632;SDS011;28261;53.304;-6.284;2024-02-26T04:56:29;8.43;;;3.35;;
42632;SDS011;28261;53.304;-6.284;2024-02-26T04:58:34;5.53;;;2.92;;
42632;SDS011;28261;53.304;-6.284;2024-02-26T05:00:38;6.15;;;3.45;;
42632;SDS011;28261;53.304;-6.284;2024-02-26T05:02:42;5.78;;;3.13;;
42632;SDS011;28261;53.304;-6.284;2024-02-26T05:04:46;3.90;;;2.38;;
42632;SDS011;28261;53.304;-6.284;2024-02-26T05:06:50;3.60;;;2.28;;
42632;SDS011;28261;53.304;-6.284;2024-02-26T05:10:59;5.65;;;2.90;;
42632;SDS011;28261;53.304;-6.284;2024-02-26T05:13:04;6.40;;;3.17;;
42632;SDS011;28261;53.304;-6.284;2024-02-26T05:15:09;5.32;;;2.90;;
42632;SDS011;28261;53.304;-6.284;2024-02-26T05:17:13;4.90;;;2.78;;
42632;SDS011;28261;53.304;-6.284;2024-02-26T05:19:17;5.32;;;2.85;;
42632;SDS011;28261;53.304;-6.284;2024-02-26T05:21:21;9.18;;;2.63;;
42632;SDS011;28261;53.304;-6.284;2024-02-26T05:23:26;6.05;;;2.65;;
42632;SDS011;28261;53.304;-6.284;2024-02-26T05:25:32;6.18;;;2.38;;
42632;SDS011;28261;53.304;-6.284;2024-02-26T05:27:36;6.93;;;2.60;;
42632;SDS011;28261;53.304;-6.284;2024-02-26T05:29:38;3.80;;;2.20;;
42632;SDS011;28261;53.304;-6.284;2024-02-26T05:31:42;3.15;;;1.92;;
42632;SDS011;28261;53.304;-6.284;2024-02-26T05:33:46;4.07;;;2.33;;
42632;SDS011;28261;53.304;-6.284;2024-02-26T05:35:51;4.82;;;1.80;;
42632;SDS011;28261;53.304;-6.284;2024-02-26T05:37:54;3.17;;;2.05;;
42632;SDS011;28261;53.304;-6.284;2024-02-26T05:39:59;3.55;;;1.83;;
42632;SDS011;28261;53.304;-6.284;2024-02-26T05:42:04;7.00;;;2.20;;
42632;SDS011;28261;53.304;-6.284;2024-02-26T05:44:07;4.10;;;1.90;;
42632;SDS011;28261;53.304;-6.284;2024-02-26T05:46:12;2.90;;;1.63;;
42632;SDS011;28261;53.304;-6.284;2024-02-26T05:48:17;3.10;;;1.80;;
42632;SDS011;28261;53.304;-6.284;2024-02-26T05:50:22;3.67;;;1.55;;
42632;SDS011;28261;53.304;-6.284;2024-02-26T05:52:26;7.15;;;1.85;;
42632;SDS011;28261;53.304;-6.284;2024-02-26T05:54:31;5.50;;;2.20;;
42632;SDS011;28261;53.304;-6.284;2024-02-26T05:56:35;2.92;;;1.63;;
42632;SDS011;28261;53.304;-6.284;2024-02-26T05:58:40;3.22;;;1.33;;
42632;SDS011;28261;53.304;-6.284;2024-02-26T06:02:48;3.28;;;1.60;;
42632;SDS011;28261;53.304;-6.284;2024-02-26T06:04:52;7.70;;;2.50;;
42632;SDS011;28261;53.304;-6.284;2024-02-26T06:06:56;3.92;;;1.52;;
42632;SDS011;28261;53.304;-6.284;2024-02-26T06:09:00;3.28;;;1.52;;
42632;SDS011;28261;53.304;-6.284;2024-02-26T06:11:07;4.60;;;2.53;;
42632;SDS011;28261;53.304;-6.284;2024-02-26T06:13:11;3.83;;;1.63;;
42632;SDS011;28261;53.304;-6.284;2024-02-26T06:15:16;3.60;;;1.60;;
42632;SDS011;28261;53.304;-6.284;2024-02-26T06:17:20;2.97;;;1.50;;
42632;SDS011;28261;53.304;-6.284;2024-02-26T06:19:24;5.00;;;1.67;;
42632;SDS011;28261;53.304;-6.284;2024-02-26T06:21:28;2.65;;;1.45;;
42632;SDS011;28261;53.304;-6.284;2024-02-26T06:23:32;3.92;;;2.42;;
42632;SDS011;28261;53.304;-6.284;2024-02-26T06:25:37;3.35;;;2.00;;
42632;SDS011;28261;53.304;-6.284;2024-02-26T06:27:41;5.85;;;1.77;;
42632;SDS011;28261;53.304;-6.284;2024-02-26T06:29:45;3.25;;;1.70;;
42632;SDS011;28261;53.304;-6.284;2024-02-26T06:31:51;4.72;;;1.77;;
42632;SDS011;28261;53.304;-6.284;2024-02-26T06:33:55;4.35;;;1.50;;
42632;SDS011;28261;53.304;-6.284;2024-02-26T06:36:01;3.15;;;1.70;;
42632;SDS011;28261;53.304;-6.284;2024-02-26T06:38:05;4.78;;;1.60;;
42632;SDS011;28261;53.304;-6.284;2024-02-26T06:40:08;2.47;;;1.45;;
42632;SDS011;28261;53.304;-6.284;2024-02-26T06:42:12;3.50;;;2.03;;
42632;SDS011;28261;53.304;-6.284;2024-02-26T06:44:15;4.03;;;1.80;;
42632;SDS011;28261;53.304;-6.284;2024-02-26T06:46:19;4.80;;;2.15;;
42632;SDS011;28261;53.304;-6.284;2024-02-26T06:48:25;3.58;;;1.50;;
42632;SDS011;28261;53.304;-6.284;2024-02-26T06:50:29;6.53;;;2.03;;
42632;SDS011;28261;53.304;-6.284;2024-02-26T06:52:34;7.80;;;2.00;;
42632;SDS011;28261;53.304;-6.284;2024-02-26T06:54:37;4.22;;;1.52;;
42632;SDS011;28261;53.304;-6.284;2024-02-26T06:56:42;3.70;;;2.22;;
42632;SDS011;28261;53.304;-6.284;2024-02-26T06:58:46;2.28;;;1.48;;
42632;SDS011;28261;53.304;-6.284;2024-02-26T07:00:50;5.10;;;1.60;;
42632;SDS011;28261;53.304;-6.284;2024-02-26T07:02:54;4.68;;;1.45;;
42632;SDS011;28261;53.304;-6.284;2024-02-26T07:05:00;5.93;;;2.10;;
42632;SDS011;28261;53.304;-6.284;2024-02-26T07:07:05;2.75;;;1.40;;
42632;SDS011;28261;53.304;-6.284;2024-02-26T07:09:10;4.15;;;1.80;;
42632;SDS011;28261;53.304;-6.284;2024-02-26T07:11:14;2.58;;;1.25;;
42632;SDS011;28261;53.304;-6.284;2024-02-26T07:13:19;2.30;;;1.25;;
42632;SDS011;28261;53.304;-6.284;2024-02-26T07:15:23;6.18;;;2.13;;
42632;SDS011;28261;53.304;-6.284;2024-02-26T07:17:27;4.13;;;1.83;;
42632;SDS011;28261;53.304;-6.284;2024-02-26T07:19:31;2.30;;;1.85;;
42632;SDS011;28261;53.304;-6.284;2024-02-26T07:21:37;4.25;;;1.50;;
42632;SDS011;28261;53.304;-6.284;2024-02-26T07:23:41;3.33;;;1.35;;
42632;SDS011;28261;53.304;-6.284;2024-02-26T07:25:44;3.38;;;1.50;;
42632;SDS011;28261;53.304;-6.284;2024-02-26T07:27:50;5.07;;;1.25;;
42632;SDS011;28261;53.304;-6.284;2024-02-26T07:29:54;4.68;;;1.80;;
42632;SDS011;28261;53.304;-6.284;2024-02-26T07:31:58;3.13;;;1.40;;
42632;SDS011;28261;53.304;-6.284;2024-02-26T07:34:02;4.25;;;1.65;;
42632;SDS011;28261;53.304;-6.284;2024-02-26T07:36:07;2.65;;;1.20;;
42632;SDS011;28261;53.304;-6.284;2024-02-26T07:38:12;4.68;;;1.30;;
42632;SDS011;28261;53.304;-6.284;2024-02-26T07:40:32;5.07;;;1.30;;
42632;SDS011;28261;53.304;-6.284;2024-02-26T07:42:36;3.38;;;2.00;;
42632;SDS011;28261;53.304;-6.284;2024-02-26T07:44:41;4.20;;;1.83;;
42632;SDS011;28261;53.304;-6.284;2024-02-26T07:46:45;5.75;;;1.60;;
42632;SDS011;28261;53.304;-6.284;2024-02-26T07:48:49;4.32;;;1.30;;
42632;SDS011;28261;53.304;-6.284;2024-02-26T07:50:53;6.55;;;1.27;;
42632;SDS011;28261;53.304;-6.284;2024-02-26T07:52:56;3.55;;;1.35;;
42632;SDS011;28261;53.304;-6.284;2024-02-26T07:55:02;2.97;;;1.25;;
42632;SDS011;28261;53.304;-6.284;2024-02-26T07:57:08;4.55;;;1.40;;
42632;SDS011;28261;53.304;-6.284;2024-02-26T07:59:13;4.68;;;1.38;;
42632;SDS011;28261;53.304;-6.284;2024-02-26T08:01:17;7.53;;;1.83;;
42632;SDS011;28261;53.304;-6.284;2024-02-26T08:03:20;8.60;;;1.52;;
42632;SDS011;28261;53.304;-6.284;2024-02-26T08:05:24;4.38;;;1.60;;
42632;SDS011;28261;53.304;-6.284;2024-02-26T08:07:28;2.97;;;1.20;;
42632;SDS011;28261;53.304;-6.284;2024-02-26T08:09:32;4.85;;;1.60;;
42632;SDS011;28261;53.304;-6.284;2024-02-26T08:11:38;4.40;;;1.40;;
42632;SDS011;28261;53.304;-6.284;2024-02-26T08:13:40;2.90;;;1.33;;
42632;SDS011;28261;53.304;-6.284;2024-02-26T08:15:45;6.30;;;1.17;;
42632;SDS011;28261;53.304;-6.284;2024-02-26T08:17:48;2.97;;;1.65;;
42632;SDS011;28261;53.304;-6.284;2024-02-26T08:19:51;3.35;;;1.30;;
42632;SDS011;28261;53.304;-6.284;2024-02-26T08:21:55;3.88;;;1.75;;
42632;SDS011;28261;53.304;-6.284;2024-02-26T08:24:04;5.82;;;1.80;;
42632;SDS011;28261;53.304;-6.284;2024-02-26T08:26:09;7.38;;;1.60;;
42632;SDS011;28261;53.304;-6.284;2024-02-26T08:28:14;5.80;;;2.03;;
42632;SDS011;28261;53.304;-6.284;2024-02-26T08:30:20;2.42;;;1.35;;
42632;SDS011;28261;53.304;-6.284;2024-02-26T08:32:24;5.32;;;1.20;;
42632;SDS011;28261;53.304;-6.284;2024-02-26T08:34:28;4.93;;;1.10;;
42632;SDS011;28261;53.304;-6.284;2024-02-26T08:36:33;5.25;;;1.50;;
42632;SDS011;28261;53.304;-6.284;2024-02-26T08:38:38;6.18;;;1.83;;
42632;SDS011;28261;53.304;-6.284;2024-02-26T08:40:42;7.28;;;2.58;;
42632;SDS011;28261;53.304;-6.284;2024-02-26T08:42:46;8.10;;;1.70;;
42632;SDS011;28261;53.304;-6.284;2024-02-26T08:44:52;10.38;;;2.40;;
42632;SDS011;28261;53.304;-6.284;2024-02-26T08:46:56;7.10;;;2.13;;
42632;SDS011;28261;53.304;-6.284;2024-02-26T08:49:00;6.43;;;1.88;;
42632;SDS011;28261;53.304;-6.284;2024-02-26T08:51:05;3.15;;;1.10;;
42632;SDS011;28261;53.304;-6.284;2024-02-26T08:55:14;6.30;;;1.23;;
42632;SDS011;28261;53.304;-6.284;2024-02-26T08:57:18;6.57;;;1.63;;
42632;SDS011;28261;53.304;-6.284;2024-02-26T08:59:22;3.78;;;1.00;;
42632;SDS011;28261;53.304;-6.284;2024-02-26T09:01:28;3.83;;;0.90;;
42632;SDS011;28261;53.304;-6.284;2024-02-26T09:03:33;3.33;;;1.17;;
42632;SDS011;28261;53.304;-6.284;2024-02-26T09:05:36;2.45;;;0.82;;
42632;SDS011;28261;53.304;-6.284;2024-02-26T09:07:40;1.92;;;0.68;;
42632;SDS011;28261;53.304;-6.284;2024-02-26T09:09:43;3.55;;;0.88;;
42632;SDS011;28261;53.304;-6.284;2024-02-26T09:11:47;4.07;;;0.80;;
42632;SDS011;28261;53.304;-6.284;2024-02-26T09:13:50;3.97;;;0.80;;
42632;SDS011;28261;53.304;-6.284;2024-02-26T09:15:54;2.10;;;0.60;;
42632;SDS011;28261;53.304;-6.284;2024-02-26T09:17:58;3.03;;;0.90;;
42632;SDS011;28261;53.304;-6.284;2024-02-26T09:20:03;5.13;;;0.63;;
42632;SDS011;28261;53.304;-6.284;2024-02-26T09:22:08;7.30;;;1.00;;
42632;SDS011;28261;53.304;-6.284;2024-02-26T09:24:14;1.70;;;0.63;;
42632;SDS011;28261;53.304;-6.284;2024-02-26T09:26:19;3.42;;;1.35;;
42632;SDS011;28261;53.304;-6.284;2024-02-26T09:28:23;3.25;;;0.60;;
42632;SDS011;28261;53.304;-6.284;2024-02-26T09:30:26;6.05;;;1.00;;
42632;SDS011;28261;53.304;-6.284;2024-02-26T09:32:30;1.90;;;0.63;;
42632;SDS011;28261;53.304;-6.284;2024-02-26T09:34:35;2.13;;;0.50;;
42632;SDS011;28261;53.304;-6.284;2024-02-26T09:36:39;6.68;;;1.42;;
42632;SDS011;28261;53.304;-6.284;2024-02-26T09:38:44;2.17;;;0.77;;
42632;SDS011;28261;53.304;-6.284;2024-02-26T09:41:01;8.65;;;1.38;;
42632;SDS011;28261;53.304;-6.284;2024-02-26T09:43:04;1.95;;;0.68;;
42632;SDS011;28261;53.304;-6.284;2024-02-26T09:45:10;0.88;;;0.50;;
42632;SDS011;28261;53.304;-6.284;2024-02-26T09:47:20;6.47;;;0.80;;
42632;SDS011;28261;53.304;-6.284;2024-02-26T09:49:26;2.88;;;0.85;;
42632;SDS011;28261;53.304;-6.284;2024-02-26T09:51:32;2.55;;;0.85;;
42632;SDS011;28261;53.304;-6.284;2024-02-26T09:53:36;3.30;;;0.70;;
42632;SDS011;28261;53.304;-6.284;2024-02-26T09:55:45;2.45;;;0.65;;
42632;SDS011;28261;53.304;-6.284;2024-02-26T09:57:48;4.32;;;0.80;;
42632;SDS011;28261;53.304;-6.284;2024-02-26T09:59:55;2.05;;;1.05;;
42632;SDS011;28261;53.304;-6.284;2024-02-26T10:02:09;3.83;;;0.98;;
42632;SDS011;28261;53.304;-6.284;2024-02-26T10:04:15;2.15;;;0.60;;
42632;SDS011;28261;53.304;-6.284;2024-02-26T10:06:19;3.65;;;2.03;;
42632;SDS011;28261;53.304;-6.284;2024-02-26T10:08:25;3.45;;;0.60;;
42632;SDS011;28261;53.304;-6.284;2024-02-26T10:10:30;3.92;;;0.85;;
42632;SDS011;28261;53.304;-6.284;2024-02-26T10:12:36;1.70;;;0.60;;
42632;SDS011;28261;53.304;-6.284;2024-02-26T10:14:39;5.05;;;0.90;;
42632;SDS011;28261;53.304;-6.284;2024-02-26T10:16:43;2.88;;;0.98;;
42632;SDS011;28261;53.304;-6.284;2024-02-26T10:18:47;2.63;;;0.70;;
42632;SDS011;28261;53.304;-6.284;2024-02-26T10:21:00;3.88;;;0.63;;
42632;SDS011;28261;53.304;-6.284;2024-02-26T10:23:04;2.15;;;0.60;;
42632;SDS011;28261;53.304;-6.284;2024-02-26T10:25:10;2.70;;;1.05;;
42632;SDS011;28261;53.304;-6.284;2024-02-26T10:27:14;2.95;;;0.60;;
42632;SDS011;28261;53.304;-6.284;2024-02-26T10:29:19;1.88;;;0.40;;
42632;SDS011;28261;53.304;-6.284;2024-02-26T10:31:23;2.10;;;0.52;;
42632;SDS011;28261;53.304;-6.284;2024-02-26T10:33:28;4.20;;;0.85;;
42632;SDS011;28261;53.304;-6.284;2024-02-26T10:35:35;5.28;;;0.70;;
42632;SDS011;28261;53.304;-6.284;2024-02-26T10:37:42;4.20;;;0.63;;
42632;SDS011;28261;53.304;-6.284;2024-02-26T10:39:46;1.95;;;0.50;;
42632;SDS011;28261;53.304;-6.284;2024-02-26T10:41:52;3.88;;;0.75;;
42632;SDS011;28261;53.304;-6.284;2024-02-26T10:43:56;6.25;;;1.08;;
42632;SDS011;28261;53.304;-6.284;2024-02-26T10:46:00;2.58;;;1.08;;
42632;SDS011;28261;53.304;-6.284;2024-02-26T10:48:04;4.38;;;0.60;;
42632;SDS011;28261;53.304;-6.284;2024-02-26T10:50:13;2.33;;;0.70;;
42632;SDS011;28261;53.304;-6.284;2024-02-26T10:52:19;1.75;;;0.40;;
42632;SDS011;28261;53.304;-6.284;2024-02-26T10:54:24;3.03;;;0.60;;
42632;SDS011;28261;53.304;-6.284;2024-02-26T10:56:31;1.60;;;0.63;;
42632;SDS011;28261;53.304;-6.284;2024-02-26T10:58:41;1.75;;;0.65;;
42632;SDS011;28261;53.304;-6.284;2024-02-26T11:00:47;3.10;;;0.40;;
42632;SDS011;28261;53.304;-6.284;2024-02-26T11:02:53;3.88;;;0.95;;
42632;SDS011;28261;53.304;-6.284;2024-02-26T11:05:00;2.30;;;0.68;;
42632;SDS011;28261;53.304;-6.284;2024-02-26T11:07:06;3.13;;;0.40;;
42632;SDS011;28261;53.304;-6.284;2024-02-26T11:09:13;2.08;;;0.55;;
42632;SDS011;28261;53.304;-6.284;2024-02-26T11:11:18;2.97;;;0.80;;
42632;SDS011;28261;53.304;-6.284;2024-02-26T11:13:23;3.80;;;0.63;;
42632;SDS011;28261;53.304;-6.284;2024-02-26T11:15:34;2.28;;;0.82;;
42632;SDS011;28261;53.304;-6.284;2024-02-26T11:17:39;1.67;;;0.20;;
42632;SDS011;28261;53.304;-6.284;2024-02-26T11:19:44;1.38;;;0.60;;
42632;SDS011;28261;53.304;-6.284;2024-02-26T11:21:50;5.35;;;0.60;;
42632;SDS011;28261;53.304;-6.284;2024-02-26T11:23:54;2.50;;;0.40;;
42632;SDS011;28261;53.304;-6.284;2024-02-26T11:25:58;0.60;;;0.40;;
42632;SDS011;28261;53.304;-6.284;2024-02-26T11:28:04;3.10;;;0.60;;
42632;SDS011;28261;53.304;-6.284;2024-02-26T11:30:12;4.50;;;0.75;;
42632;SDS011;28261;53.304;-6.284;2024-02-26T11:32:19;1.08;;;0.43;;
42632;SDS011;28261;53.304;-6.284;2024-02-26T11:34:23;3.85;;;0.50;;
42632;SDS011;28261;53.304;-6.284;2024-02-26T11:36:28;3.50;;;0.65;;
42632;SDS011;28261;53.304;-6.284;2024-02-26T11:38:33;1.33;;;0.40;;
42632;SDS011;28261;53.304;-6.284;2024-02-26T11:40:37;2.33;;;0.32;;
42632;SDS011;28261;53.304;-6.284;2024-02-26T11:42:43;2.50;;;0.50;;
42632;SDS011;28261;53.304;-6.284;2024-02-26T11:44:48;1.85;;;0.45;;
42632;SDS011;28261;53.304;-6.284;2024-02-26T11:46:52;1.20;;;0.50;;
42632;SDS011;28261;53.304;-6.284;2024-02-26T11:48:58;2.60;;;0.65;;
42632;SDS011;28261;53.304;-6.284;2024-02-26T11:51:04;3.08;;;1.25;;
42632;SDS011;28261;53.304;-6.284;2024-02-26T11:53:19;1.70;;;0.60;;
42632;SDS011;28261;53.304;-6.284;2024-02-26T11:55:31;2.30;;;0.65;;
42632;SDS011;28261;53.304;-6.284;2024-02-26T11:57:37;2.75;;;0.70;;
42632;SDS011;28261;53.304;-6.284;2024-02-26T11:59:44;3.60;;;0.50;;
42632;SDS011;28261;53.304;-6.284;2024-02-26T12:03:53;2.55;;;0.50;;
42632;SDS011;28261;53.304;-6.284;2024-02-26T12:05:58;4.93;;;0.50;;
42632;SDS011;28261;53.304;-6.284;2024-02-26T12:08:04;2.58;;;0.57;;
42632;SDS011;28261;53.304;-6.284;2024-02-26T12:12:37;3.28;;;1.05;;
42632;SDS011;28261;53.304;-6.284;2024-02-26T12:14:50;1.73;;;0.70;;
42632;SDS011;28261;53.304;-6.284;2024-02-26T12:16:55;2.47;;;1.38;;
42632;SDS011;28261;53.304;-6.284;2024-02-26T12:18:58;2.08;;;0.95;;
42632;SDS011;28261;53.304;-6.284;2024-02-26T12:21:04;2.22;;;0.50;;
42632;SDS011;28261;53.304;-6.284;2024-02-26T12:23:08;2.45;;;0.50;;
42632;SDS011;28261;53.304;-6.284;2024-02-26T12:25:20;1.50;;;0.40;;
42632;SDS011;28261;53.304;-6.284;2024-02-26T12:27:26;3.17;;;0.65;;
42632;SDS011;28261;53.304;-6.284;2024-02-26T12:29:29;2.22;;;0.57;;
42632;SDS011;28261;53.304;-6.284;2024-02-26T12:31:32;1.17;;;0.45;;
42632;SDS011;28261;53.304;-6.284;2024-02-26T12:33:38;1.58;;;0.70;;
42632;SDS011;28261;53.304;-6.284;2024-02-26T12:35:42;2.22;;;0.60;;
42632;SDS011;28261;53.304;-6.284;2024-02-26T12:37:51;1.35;;;0.90;;
42632;SDS011;28261;53.304;-6.284;2024-02-26T12:39:56;3.95;;;1.15;;
42632;SDS011;28261;53.304;-6.284;2024-02-26T12:42:00;2.13;;;0.35;;
42632;SDS011;28261;53.304;-6.284;2024-02-26T12:44:05;2.28;;;0.40;;